createdAt,value
2016-12-18T00:04:15.100Z,6.05
2016-12-18T00:09:11.189Z,6.08
2016-12-18T00:14:07.740Z,6.09
2016-12-18T00:19:04.738Z,6.14
2016-12-18T00:24:01.357Z,6.20
2016-12-18T00:28:58.172Z,6.20
2016-12-18T00:33:55.417Z,6.14
2016-12-18T00:38:52.260Z,6.14
2016-12-18T00:43:48.896Z,6.17
2016-12-18T00:48:45.616Z,6.22
2016-12-18T00:53:42.353Z,6.27
2016-12-18T00:58:39.154Z,6.12
2016-12-18T01:03:35.336Z,6.17
2016-12-18T01:08:31.877Z,6.17
2016-12-18T01:13:28.320Z,6.17
2016-12-18T01:18:24.758Z,6.22
2016-12-18T01:23:21.362Z,6.27
2016-12-18T01:28:19.169Z,6.26
2016-12-18T01:33:15.457Z,6.20
2016-12-18T01:38:12.038Z,6.27
2016-12-18T01:43:08.747Z,6.16
2016-12-18T01:48:05.516Z,6.11
2016-12-18T01:53:02.137Z,6.16
2016-12-18T01:57:58.668Z,6.12
2016-12-18T02:02:55.215Z,6.16
2016-12-18T02:07:51.877Z,6.17
2016-12-18T02:12:50.136Z,6.20
2016-12-18T02:17:47.313Z,6.22
2016-12-18T02:22:43.714Z,6.28
2016-12-18T02:27:40.383Z,6.22
2016-12-18T02:32:38.133Z,6.26
2016-12-18T02:37:35.721Z,6.31
2016-12-18T02:42:31.615Z,6.36
2016-12-18T02:47:28.901Z,6.44
2016-12-18T02:52:25.830Z,6.39
2016-12-18T02:57:23.055Z,6.38
2016-12-18T03:02:19.654Z,6.36
2016-12-18T03:07:16.636Z,6.41
2016-12-18T03:12:12.774Z,6.45
2016-12-18T03:17:09.392Z,6.51
2016-12-18T03:22:05.914Z,6.48
2016-12-18T03:27:02.717Z,6.48
2016-12-18T03:31:59.713Z,6.57
2016-12-18T03:36:57.646Z,6.62
2016-12-18T03:41:53.414Z,6.59
2016-12-18T03:46:49.993Z,6.54
2016-12-18T03:51:46.373Z,6.54
2016-12-18T03:56:43.653Z,6.63
2016-12-18T04:01:40.207Z,6.63
2016-12-18T04:06:37.947Z,6.70
2016-12-18T04:11:34.491Z,6.49
2016-12-18T04:16:30.711Z,6.60
2016-12-18T04:21:27.832Z,6.48
2016-12-18T04:26:26.204Z,6.48
2016-12-18T04:31:23.494Z,6.41
2016-12-18T04:36:19.763Z,6.20
2016-12-18T04:41:16.251Z,6.07
2016-12-18T04:46:12.811Z,6.07
2016-12-18T04:51:10.811Z,5.98
2016-12-18T04:56:07.371Z,6.05
2016-12-18T05:01:03.733Z,5.91
2016-12-18T05:06:00.072Z,5.86
2016-12-18T05:10:56.651Z,5.91
2016-12-18T05:15:52.971Z,5.75
2016-12-18T05:20:49.461Z,5.72
2016-12-18T05:25:45.845Z,5.76
2016-12-18T05:30:42.532Z,5.76
2016-12-18T05:35:38.560Z,5.97
2016-12-18T05:40:34.794Z,5.87
2016-12-18T05:45:31.309Z,5.87
2016-12-18T05:50:28.471Z,5.90
2016-12-18T05:55:24.991Z,5.76
2016-12-18T06:00:21.570Z,5.97
2016-12-18T06:05:21.306Z,6.01
2016-12-18T06:10:18.473Z,6.02
2016-12-18T06:15:16.631Z,6.07
2016-12-18T06:20:12.671Z,5.98
2016-12-18T06:25:09.351Z,6.11
2016-12-18T06:30:06.001Z,6.09
2016-12-18T06:35:02.531Z,6.14
2016-12-18T06:39:59.170Z,6.24
2016-12-18T06:44:55.616Z,6.24
2016-12-18T06:49:52.751Z,6.36
2016-12-18T06:54:49.371Z,6.30
2016-12-18T06:59:45.955Z,6.44
2016-12-18T07:04:42.716Z,6.41
2016-12-18T07:09:39.129Z,6.45
2016-12-18T07:14:35.629Z,6.54
2016-12-18T07:19:32.089Z,6.49
2016-12-18T07:24:28.731Z,6.31
2016-12-18T07:29:25.396Z,6.35
2016-12-18T07:34:21.757Z,6.42
2016-12-18T07:39:19.297Z,6.42
2016-12-18T07:44:17.525Z,6.45
2016-12-18T07:49:16.842Z,6.42
2016-12-18T07:54:14.005Z,6.22
2016-12-18T07:59:11.345Z,6.30
2016-12-18T08:04:06.972Z,6.33
2016-12-18T08:09:03.322Z,6.31
2016-12-18T08:14:00.061Z,6.26
2016-12-18T08:18:56.728Z,6.27
2016-12-18T08:23:54.289Z,6.28
2016-12-18T08:28:50.724Z,6.28
2016-12-18T08:38:50.477Z,6.42
2016-12-18T08:43:47.078Z,6.41
2016-12-18T08:48:43.678Z,6.52
2016-12-18T08:53:39.983Z,6.45
2016-12-18T08:58:37.212Z,6.52
2016-12-18T09:03:36.129Z,6.66
2016-12-18T09:08:31.791Z,6.64
2016-12-18T09:13:28.358Z,6.67
2016-12-18T09:18:26.118Z,6.62
2016-12-18T09:23:22.580Z,6.82
2016-12-18T09:28:19.156Z,6.84
2016-12-18T09:33:16.555Z,6.81
2016-12-18T09:38:12.481Z,6.82
2016-12-18T09:43:09.032Z,6.82
2016-12-18T09:48:05.759Z,6.95
2016-12-18T09:53:04.689Z,6.96
2016-12-18T09:58:00.586Z,7.14
2016-12-18T10:02:58.329Z,7.06
2016-12-18T10:07:54.836Z,7.21
2016-12-18T10:12:54.078Z,7.38
2016-12-18T10:17:49.882Z,7.51
2016-12-18T10:22:48.524Z,7.54
2016-12-18T10:27:44.732Z,7.56
2016-12-18T10:32:42.043Z,7.70
2016-12-18T10:37:39.958Z,7.75
2016-12-18T10:42:36.404Z,7.73
2016-12-18T10:47:35.736Z,7.98
2016-12-18T10:52:31.752Z,7.94
2016-12-18T10:57:29.047Z,7.93
2016-12-18T11:02:27.035Z,8.10
2016-12-18T11:07:23.443Z,8.03
2016-12-18T11:12:20.003Z,8.18
2016-12-18T11:17:17.567Z,8.13
2016-12-18T11:22:14.287Z,8.01
2016-12-18T11:32:10.989Z,8.09
2016-12-18T11:37:07.303Z,8.16
2016-12-18T11:42:05.528Z,8.16
2016-12-18T11:47:02.379Z,8.23
2016-12-18T11:52:01.703Z,8.20
2016-12-18T11:56:58.483Z,8.31
2016-12-18T12:01:54.963Z,8.44
2016-12-18T12:06:51.545Z,8.46
2016-12-18T12:11:49.404Z,8.58
2016-12-18T12:16:46.182Z,8.66
2016-12-18T12:21:43.936Z,8.67
2016-12-18T12:26:40.244Z,8.64
2016-12-18T12:31:36.847Z,8.69
2016-12-18T12:36:33.432Z,8.69
2016-12-18T12:41:30.720Z,8.71
2016-12-18T12:46:27.528Z,8.66
2016-12-18T12:51:23.931Z,8.55
2016-12-18T12:56:20.158Z,8.36
2016-12-18T13:01:17.020Z,8.37
2016-12-18T13:06:13.559Z,8.34
2016-12-18T13:11:09.691Z,8.45
2016-12-18T13:16:07.784Z,8.44
2016-12-18T13:21:03.507Z,8.31
2016-12-18T13:26:01.025Z,8.30
2016-12-18T13:30:57.073Z,8.31
2016-12-18T13:35:53.970Z,8.12
2016-12-18T13:40:51.653Z,8.08
2016-12-18T13:45:51.020Z,7.82
2016-12-18T13:50:46.991Z,7.66
2016-12-18T13:55:43.710Z,7.76
2016-12-18T14:00:40.624Z,7.83
2016-12-18T14:05:37.095Z,7.94
2016-12-18T14:10:36.113Z,8.01
2016-12-18T14:15:31.932Z,8.00
2016-12-18T14:20:28.274Z,8.09
2016-12-18T14:25:24.810Z,8.00
2016-12-18T14:30:21.326Z,7.94
2016-12-18T14:35:17.753Z,7.79
2016-12-18T14:40:14.243Z,7.80
2016-12-18T14:45:10.694Z,7.67
2016-12-18T14:50:07.590Z,7.63
2016-12-18T14:55:04.052Z,7.66
2016-12-18T15:00:00.425Z,7.72
2016-12-18T15:04:56.668Z,7.72
2016-12-18T15:09:55.489Z,7.72
2016-12-18T15:14:51.386Z,7.77
2016-12-18T15:19:47.930Z,7.67
2016-12-18T15:24:44.230Z,7.61
2016-12-18T15:29:40.570Z,7.58
2016-12-18T15:34:36.988Z,7.56
2016-12-18T15:39:36.428Z,7.53
2016-12-18T15:44:32.392Z,7.60
2016-12-18T15:49:28.889Z,7.50
2016-12-18T15:54:27.856Z,7.58
2016-12-18T15:59:24.721Z,7.54
2016-12-18T16:04:20.794Z,7.48
2016-12-18T16:09:17.194Z,7.45
2016-12-18T16:14:13.409Z,7.51
2016-12-18T16:19:09.984Z,7.40
2016-12-18T16:24:06.470Z,7.33
2016-12-18T16:29:02.930Z,7.38
2016-12-18T16:33:59.950Z,7.29
2016-12-18T16:38:57.070Z,7.33
2016-12-18T16:43:53.692Z,7.29
2016-12-18T16:48:50.781Z,7.31
2016-12-18T16:53:47.227Z,7.32
2016-12-18T16:58:44.273Z,7.39
2016-12-18T17:03:40.958Z,7.29
2016-12-18T17:08:37.295Z,7.32
2016-12-18T17:13:33.684Z,7.32
2016-12-18T17:18:29.575Z,7.32
2016-12-18T17:23:26.051Z,7.17
2016-12-18T17:28:22.812Z,7.18
2016-12-18T17:33:19.073Z,7.15
2016-12-18T17:38:15.476Z,7.14
2016-12-18T17:43:11.732Z,7.15
2016-12-18T17:48:08.389Z,7.20
2016-12-18T17:53:05.148Z,7.14
2016-12-18T17:58:01.735Z,7.11
2016-12-18T18:02:58.903Z,7.10
2016-12-18T18:07:55.338Z,7.07
2016-12-18T18:12:52.275Z,7.07
2016-12-18T18:17:48.834Z,7.14
2016-12-18T18:22:45.407Z,7.06
2016-12-18T18:27:41.887Z,7.05
2016-12-18T18:32:38.393Z,7.06
2016-12-18T18:37:34.850Z,7.00
2016-12-18T18:42:31.146Z,6.93
2016-12-18T18:47:28.616Z,6.93
2016-12-18T18:52:24.881Z,7.00
2016-12-18T18:57:21.796Z,7.02
2016-12-18T19:02:18.135Z,7.10
2016-12-18T19:07:14.508Z,6.96
2016-12-18T19:12:11.163Z,7.03
2016-12-18T19:17:07.697Z,7.06
2016-12-18T19:22:04.179Z,7.13
2016-12-18T19:27:00.837Z,7.11
2016-12-18T19:31:57.377Z,7.06
2016-12-18T19:36:54.098Z,7.00
2016-12-18T19:41:50.469Z,7.00
2016-12-18T19:46:46.977Z,6.85
2016-12-18T19:51:43.838Z,6.70
2016-12-18T19:56:40.095Z,6.85
2016-12-18T20:01:37.595Z,6.84
2016-12-18T20:06:33.860Z,6.97
2016-12-18T20:11:30.315Z,6.79
2016-12-18T20:16:26.882Z,6.75
2016-12-18T20:21:23.681Z,6.67
2016-12-18T20:26:20.081Z,6.63
2016-12-18T20:31:16.281Z,6.62
2016-12-18T20:36:12.660Z,6.74
2016-12-18T20:41:09.156Z,6.77
2016-12-18T20:46:06.596Z,6.79
2016-12-18T20:51:02.938Z,6.77
2016-12-18T20:55:59.300Z,6.74
2016-12-18T21:00:55.846Z,6.87
2016-12-18T21:05:52.359Z,6.96
2016-12-18T21:10:48.817Z,6.85
2016-12-18T21:15:46.700Z,6.87
2016-12-18T21:20:43.144Z,6.85
2016-12-18T21:25:39.539Z,6.87
2016-12-18T21:30:36.489Z,6.81
2016-12-18T21:35:32.866Z,6.79
2016-12-18T21:40:29.148Z,6.79
2016-12-18T21:45:25.241Z,6.87
2016-12-18T21:50:21.798Z,6.82
2016-12-18T21:55:20.937Z,6.97
2016-12-18T22:00:16.763Z,6.87
2016-12-18T22:05:13.400Z,6.84
2016-12-18T22:10:09.915Z,6.84
2016-12-18T22:15:06.860Z,6.85
2016-12-18T22:20:03.203Z,6.85
2016-12-18T22:24:59.342Z,6.89
2016-12-18T22:29:55.686Z,7.02
2016-12-18T22:34:52.148Z,6.96
2016-12-18T22:39:49.268Z,6.96
2016-12-18T22:44:45.705Z,6.96
2016-12-18T22:49:42.304Z,7.00
2016-12-18T22:54:38.640Z,7.06
2016-12-18T22:59:35.002Z,6.96
2016-12-18T23:04:31.445Z,6.96
2016-12-18T23:09:28.025Z,6.96
2016-12-18T23:14:24.664Z,6.96
2016-12-18T23:19:21.364Z,6.89
2016-12-18T23:24:17.457Z,6.82
2016-12-18T23:29:15.623Z,6.69
2016-12-18T23:34:12.094Z,6.66
2016-12-18T23:39:08.544Z,6.63
2016-12-18T23:44:04.900Z,6.59
2016-12-18T23:49:01.307Z,6.62
2016-12-18T23:53:57.429Z,6.51
2016-12-18T23:58:54.066Z,6.56
